Time;durP1;ratioP1;P1;durP2;ratioP2;P2;SDS_P1;SDS_P2;PMS_P1;PMS_P2;Temp;Humidity;BMP_temperature;BMP_pressure;BME280_temperature;BME280_humidity;BME280_pressure;Samples;Min_cycle;Max_cycle;Signal;HPM_P1;HPM_P2
2023/12/23 00:01:21;;;;;;;39.88;36.45;;;;;;;;;;5044583;28;20060;-75
2023/12/23 00:03:52;;;;;;;39.30;35.88;;;;;;;;;;5044498;28;20045;-75
2023/12/23 00:06:23;;;;;;;36.65;34.15;;;;;;;;;;5043348;28;20416;-76
2023/12/23 00:08:53;;;;;;;38.58;35.88;;;;;;;;;;5044137;28;20048;-76
2023/12/23 00:11:24;;;;;;;41.20;37.90;;;;;;;;;;5044050;28;20048;-76
2023/12/23 00:13:55;;;;;;;40.53;37.47;;;;;;;;;;5048376;28;20045;-75
2023/12/23 00:16:28;;;;;;;47.08;43.72;;;;;;;;;;5055921;28;20396;-76
2023/12/23 00:18:58;;;;;;;46.60;42.90;;;;;;;;;;5063565;28;20064;-76
2023/12/23 00:21:30;;;;;;;47.20;43.42;;;;;;;;;;5060071;28;20049;-74
2023/12/23 00:24:01;;;;;;;49.13;45.50;;;;;;;;;;5061550;28;20580;-76
2023/12/23 00:26:32;;;;;;;37.60;34.42;;;;;;;;;;5061954;28;20275;-77
2023/12/23 00:29:02;;;;;;;39.13;36.05;;;;;;;;;;5061804;28;20063;-76
2023/12/23 00:31:32;;;;;;;42.22;38.72;;;;;;;;;;5064364;28;20055;-75
2023/12/23 00:34:03;;;;;;;44.70;41.65;;;;;;;;;;5063942;28;20419;-74
2023/12/23 00:36:34;;;;;;;41.33;38.25;;;;;;;;;;5063364;28;20053;-76
2023/12/23 00:39:04;;;;;;;47.53;44.00;;;;;;;;;;5063072;28;20126;-75
2023/12/23 00:41:34;;;;;;;33.00;30.58;;;;;;;;;;5061923;28;20057;-76
2023/12/23 00:44:04;;;;;;;35.92;33.00;;;;;;;;;;5063353;28;20048;-76
2023/12/23 00:46:35;;;;;;;39.30;36.05;;;;;;;;;;5062054;28;20738;-74
2023/12/23 00:49:06;;;;;;;37.47;34.30;;;;;;;;;;5063523;28;20056;-77
2023/12/23 00:51:37;;;;;;;38.33;35.28;;;;;;;;;;5063271;28;20457;-76
2023/12/23 00:54:07;;;;;;;33.08;30.80;;;;;;;;;;5062838;28;20534;-75
2023/12/23 00:56:37;;;;;;;44.72;41.42;;;;;;;;;;5063249;28;20415;-75
2023/12/23 00:59:08;;;;;;;43.22;39.78;;;;;;;;;;5063296;28;20048;-75
2023/12/23 01:01:42;;;;;;;49.13;45.63;;;;;;;;;;5064205;28;20052;-75
2023/12/23 01:04:13;;;;;;;50.22;46.70;;;;;;;;;;5062649;28;20415;-75
2023/12/23 01:06:43;;;;;;;43.95;40.60;;;;;;;;;;5063516;28;20044;-76
2023/12/23 01:09:14;;;;;;;41.63;38.03;;;;;;;;;;5062244;28;20040;-75
2023/12/23 01:11:46;;;;;;;42.30;38.97;;;;;;;;;;5062476;28;20060;-73
2023/12/23 01:14:17;;;;;;;39.67;36.88;;;;;;;;;;5062760;28;20045;-75
2023/12/23 01:16:47;;;;;;;40.63;37.70;;;;;;;;;;5061599;28;20052;-75
2023/12/23 01:19:17;;;;;;;46.15;42.70;;;;;;;;;;5062418;28;20055;-75
2023/12/23 01:21:48;;;;;;;43.33;39.65;;;;;;;;;;5062961;28;20045;-76
2023/12/23 01:24:19;;;;;;;39.38;36.72;;;;;;;;;;5062005;28;20049;-75
2023/12/23 01:26:49;;;;;;;43.58;40.47;;;;;;;;;;5062625;28;20092;-74
2023/12/23 01:29:21;;;;;;;61.53;57.42;;;;;;;;;;5063024;28;20056;-74
2023/12/23 01:31:51;;;;;;;63.17;58.58;;;;;;;;;;5062773;28;20514;-74
2023/12/23 01:34:22;;;;;;;42.15;39.13;;;;;;;;;;5061414;28;20068;-74
2023/12/23 01:36:52;;;;;;;49.13;45.35;;;;;;;;;;5045408;28;20061;-74
2023/12/23 01:39:23;;;;;;;56.90;52.90;;;;;;;;;;5062534;28;20056;-76
2023/12/23 01:41:54;;;;;;;56.03;52.28;;;;;;;;;;5060765;28;20060;-75
2023/12/23 01:44:24;;;;;;;61.72;57.75;;;;;;;;;;5062236;28;20580;-75
2023/12/23 01:46:59;;;;;;;70.95;66.53;;;;;;;;;;5061479;28;20052;-75
2023/12/23 01:49:30;;;;;;;50.35;46.85;;;;;;;;;;5062745;28;20048;-73
2023/12/23 01:52:01;;;;;;;44.83;41.95;;;;;;;;;;5060920;28;20085;-81
2023/12/23 01:54:33;;;;;;;47.47;44.53;;;;;;;;;;5062602;28;20044;-74
2023/12/23 01:57:03;;;;;;;34.83;32.22;;;;;;;;;;5060758;28;20048;-73
2023/12/23 01:59:34;;;;;;;51.30;47.15;;;;;;;;;;5061847;28;20515;-74
2023/12/23 02:02:06;;;;;;;25.92;24.15;;;;;;;;;;5062212;28;20714;-74
2023/12/23 02:04:38;;;;;;;29.35;27.35;;;;;;;;;;5062030;28;20049;-71
2023/12/23 02:07:09;;;;;;;43.97;40.95;;;;;;;;;;5061777;28;20048;-74
2023/12/23 02:09:39;;;;;;;81.57;75.57;;;;;;;;;;5060359;28;20574;-76
2023/12/23 02:12:30;;;;;;;121.93;111.97;;;;;;;;;;5061519;28;20530;-74
2023/12/23 02:15:15;;;;;;;50.40;46.92;;;;;;;;;;5062052;28;20495;-74
2023/12/23 02:17:46;;;;;;;39.47;36.85;;;;;;;;;;5061431;28;20504;-73
2023/12/23 02:20:16;;;;;;;35.38;33.05;;;;;;;;;;5062322;28;20055;-76
2023/12/23 02:22:47;;;;;;;74.80;69.93;;;;;;;;;;5060423;28;20064;-74
2023/12/23 02:25:18;;;;;;;26.70;25.13;;;;;;;;;;5062170;28;20059;-75
2023/12/23 02:27:54;;;;;;;27.42;25.95;;;;;;;;;;5061502;28;20041;-74
2023/12/23 02:30:27;;;;;;;34.20;32.13;;;;;;;;;;5061442;28;20044;-74
2023/12/23 02:32:57;;;;;;;30.42;28.63;;;;;;;;;;5060701;28;20060;-74
2023/12/23 02:35:29;;;;;;;33.95;31.77;;;;;;;;;;5061551;28;20052;-74
2023/12/23 02:38:01;;;;;;;29.08;27.33;;;;;;;;;;5061437;28;20048;-76
2023/12/23 02:40:31;;;;;;;26.52;24.90;;;;;;;;;;5061495;28;20044;-74
2023/12/23 02:43:01;;;;;;;28.35;26.52;;;;;;;;;;5060918;28;20048;-76
2023/12/23 02:45:33;;;;;;;25.80;24.05;;;;;;;;;;5060924;28;20052;-76
2023/12/23 02:48:05;;;;;;;29.70;27.63;;;;;;;;;;5061450;28;20052;-74
2023/12/23 02:50:36;;;;;;;26.45;24.73;;;;;;;;;;5061030;28;20758;-74
2023/12/23 02:53:08;;;;;;;30.10;28.08;;;;;;;;;;5044536;28;20546;-73
2023/12/23 02:55:39;;;;;;;28.73;26.95;;;;;;;;;;5061762;28;20055;-72
2023/12/23 02:58:10;;;;;;;31.15;29.00;;;;;;;;;;5062380;28;20044;-75
2023/12/23 03:00:40;;;;;;;25.10;23.42;;;;;;;;;;5061723;28;20056;-73
2023/12/23 03:03:10;;;;;;;30.67;28.63;;;;;;;;;;5059730;28;20052;-76
2023/12/23 03:05:41;;;;;;;32.35;29.95;;;;;;;;;;5061368;28;20053;-76
2023/12/23 03:08:12;;;;;;;29.10;27.33;;;;;;;;;;5060979;28;20052;-73
2023/12/23 03:10:42;;;;;;;31.92;29.90;;;;;;;;;;5060041;28;20052;-78
2023/12/23 03:13:13;;;;;;;28.65;26.85;;;;;;;;;;5061352;28;20510;-73
2023/12/23 03:15:44;;;;;;;35.28;33.10;;;;;;;;;;5060416;28;20044;-74
2023/12/23 03:18:15;;;;;;;32.38;30.27;;;;;;;;;;5058985;28;20069;-74
2023/12/23 03:20:47;;;;;;;30.55;28.55;;;;;;;;;;5061069;28;20411;-75
2023/12/23 03:23:18;;;;;;;39.97;37.53;;;;;;;;;;5059504;28;20103;-74
2023/12/23 03:25:51;;;;;;;83.43;78.05;;;;;;;;;;5061579;28;20396;-74
2023/12/23 03:28:22;;;;;;;77.85;73.18;;;;;;;;;;5060174;28;20041;-74
2023/12/23 03:30:52;;;;;;;70.20;66.10;;;;;;;;;;5061113;28;20423;-74
2023/12/23 03:33:25;;;;;;;43.28;40.25;;;;;;;;;;5060431;28;20037;-74
2023/12/23 03:35:58;;;;;;;84.85;79.82;;;;;;;;;;5059645;28;20419;-73
2023/12/23 03:38:30;;;;;;;93.35;87.57;;;;;;;;;;5061237;28;20419;-75
2023/12/23 03:41:01;;;;;;;98.28;91.50;;;;;;;;;;5064769;28;20423;-74
2023/12/23 03:43:32;;;;;;;75.95;70.95;;;;;;;;;;5064564;28;20500;-74
2023/12/23 03:46:03;;;;;;;69.63;65.32;;;;;;;;;;5063738;28;20048;-78
2023/12/23 03:48:35;;;;;;;68.70;64.28;;;;;;;;;;5062922;28;20538;-74
2023/12/23 03:51:07;;;;;;;39.15;36.83;;;;;;;;;;5063963;28;20055;-74
2023/12/23 03:53:38;;;;;;;36.58;34.63;;;;;;;;;;5064378;28;20678;-74
2023/12/23 03:56:08;;;;;;;46.22;43.58;;;;;;;;;;5064878;28;20048;-74
2023/12/23 03:58:39;;;;;;;44.08;41.70;;;;;;;;;;5064282;28;20052;-75
2023/12/23 04:01:11;;;;;;;51.50;48.63;;;;;;;;;;5063737;28;20056;-74
2023/12/23 04:03:43;;;;;;;41.42;38.92;;;;;;;;;;5064183;28;20354;-74
2023/12/23 04:06:13;;;;;;;45.53;42.90;;;;;;;;;;5064531;28;20051;-74
2023/12/23 04:08:43;;;;;;;49.17;46.15;;;;;;;;;;5063162;28;20056;-74
2023/12/23 04:11:13;;;;;;;68.13;63.70;;;;;;;;;;5062699;28;20052;-74
2023/12/23 04:13:45;;;;;;;56.20;52.75;;;;;;;;;;5063705;28;20076;-73
2023/12/23 04:16:16;;;;;;;21.73;20.38;;;;;;;;;;5062029;28;20418;-74
2023/12/23 04:18:48;;;;;;;23.25;21.70;;;;;;;;;;5062517;28;20060;-74
2023/12/23 04:21:18;;;;;;;25.42;23.80;;;;;;;;;;5063372;28;20052;-73
2023/12/23 04:23:51;;;;;;;24.55;22.92;;;;;;;;;;5062803;28;20392;-74
2023/12/23 04:26:22;;;;;;;24.42;22.52;;;;;;;;;;5063965;28;20522;-73
2023/12/23 04:28:52;;;;;;;27.88;26.30;;;;;;;;;;5063862;28;20055;-74
2023/12/23 04:31:22;;;;;;;27.35;25.25;;;;;;;;;;5062307;28;20045;-73
2023/12/23 04:33:54;;;;;;;25.17;23.58;;;;;;;;;;5062584;28;20071;-74
2023/12/23 04:36:25;;;;;;;27.25;25.70;;;;;;;;;;5062778;28;20056;-74
2023/12/23 04:38:56;;;;;;;25.50;23.80;;;;;;;;;;5062376;28;20056;-74
2023/12/23 04:41:27;;;;;;;29.25;27.50;;;;;;;;;;5062504;28;20419;-75
2023/12/23 04:43:57;;;;;;;28.73;26.92;;;;;;;;;;5063224;28;20048;-74
2023/12/23 04:46:29;;;;;;;26.85;24.77;;;;;;;;;;5062062;28;20055;-74
2023/12/23 04:49:00;;;;;;;23.00;21.60;;;;;;;;;;5062759;28;20056;-73
2023/12/23 04:51:30;;;;;;;26.05;24.30;;;;;;;;;;5062061;28;21161;-73
2023/12/23 04:54:00;;;;;;;27.05;25.45;;;;;;;;;;5062233;28;20746;-74
2023/12/23 04:56:31;;;;;;;26.25;24.60;;;;;;;;;;5063263;28;20051;-74
2023/12/23 04:59:02;;;;;;;26.13;24.60;;;;;;;;;;5062779;28;20529;-72
2023/12/23 05:01:33;;;;;;;29.42;27.48;;;;;;;;;;5061614;28;20780;-74
2023/12/23 05:04:03;;;;;;;27.17;25.13;;;;;;;;;;5063033;28;20045;-74
2023/12/23 05:06:34;;;;;;;30.67;28.77;;;;;;;;;;5063267;28;20585;-74
2023/12/23 05:09:05;;;;;;;30.30;28.58;;;;;;;;;;5063434;28;20056;-72
2023/12/23 05:11:36;;;;;;;32.17;30.25;;;;;;;;;;5063193;28;20048;-74
2023/12/23 05:14:08;;;;;;;29.48;27.85;;;;;;;;;;5062479;28;20522;-74
2023/12/23 05:16:40;;;;;;;37.25;34.92;;;;;;;;;;5061766;28;20053;-73
2023/12/23 05:19:11;;;;;;;34.38;32.17;;;;;;;;;;5063438;28;20040;-73
2023/12/23 05:21:43;;;;;;;38.20;35.75;;;;;;;;;;5063204;28;20063;-73
2023/12/23 05:24:16;;;;;;;40.90;38.28;;;;;;;;;;5061208;28;20249;-74
2023/12/23 05:26:47;;;;;;;39.75;37.35;;;;;;;;;;5062717;28;20043;-72
2023/12/23 05:29:18;;;;;;;34.65;32.55;;;;;;;;;;5061703;28;20044;-73
2023/12/23 05:31:48;;;;;;;35.38;33.25;;;;;;;;;;5061199;28;20059;-73
2023/12/23 05:34:20;;;;;;;40.70;37.47;;;;;;;;;;5062000;28;20059;-73
2023/12/23 05:36:53;;;;;;;43.15;40.17;;;;;;;;;;5062486;28;20053;-73
2023/12/23 05:39:23;;;;;;;37.85;35.05;;;;;;;;;;5062270;28;20056;-73
2023/12/23 05:41:55;;;;;;;38.85;36.63;;;;;;;;;;5062553;28;20427;-73
2023/12/23 05:44:25;;;;;;;40.03;37.78;;;;;;;;;;5062557;28;20051;-73
2023/12/23 05:46:55;;;;;;;39.65;37.08;;;;;;;;;;5061053;28;20425;-73
2023/12/23 05:49:26;;;;;;;41.08;38.53;;;;;;;;;;5063158;28;20036;-73
2023/12/23 05:51:57;;;;;;;47.25;44.22;;;;;;;;;;5063508;28;20049;-72
2023/12/23 05:54:27;;;;;;;40.10;37.20;;;;;;;;;;5062646;28;20566;-72
2023/12/23 05:57:00;;;;;;;40.85;38.28;;;;;;;;;;5062487;28;20511;-73
2023/12/23 05:59:32;;;;;;;41.00;37.95;;;;;;;;;;5061694;28;20048;-73
2023/12/23 06:02:02;;;;;;;36.72;34.00;;;;;;;;;;5062353;28;20049;-75
2023/12/23 06:04:34;;;;;;;37.67;35.20;;;;;;;;;;5061678;28;20050;-72
2023/12/23 06:07:04;;;;;;;43.47;40.85;;;;;;;;;;5060555;28;20044;-73
2023/12/23 06:09:35;;;;;;;42.13;39.60;;;;;;;;;;5060958;28;20053;-74
2023/12/23 06:12:05;;;;;;;40.50;37.22;;;;;;;;;;5062004;28;20518;-74
2023/12/23 06:14:36;;;;;;;39.90;37.38;;;;;;;;;;5061781;28;20059;-74
2023/12/23 06:17:08;;;;;;;39.38;36.85;;;;;;;;;;5061564;28;20491;-74
2023/12/23 06:19:39;;;;;;;40.90;38.42;;;;;;;;;;5061399;28;20044;-73
2023/12/23 06:22:09;;;;;;;40.05;37.45;;;;;;;;;;5062059;28;20507;-73
2023/12/23 06:24:40;;;;;;;37.50;35.35;;;;;;;;;;5061133;28;20052;-74
2023/12/23 06:27:10;;;;;;;42.05;39.45;;;;;;;;;;5060936;28;20049;-74
2023/12/23 06:29:42;;;;;;;44.15;41.15;;;;;;;;;;5061199;28;20049;-74
2023/12/23 06:32:12;;;;;;;40.53;38.13;;;;;;;;;;5061702;28;20051;-74
2023/12/23 06:34:42;;;;;;;41.17;38.85;;;;;;;;;;5060582;28;20053;-74
2023/12/23 06:37:14;;;;;;;41.40;38.80;;;;;;;;;;5061696;28;20513;-72
2023/12/23 06:39:45;;;;;;;42.30;39.97;;;;;;;;;;5061990;28;20052;-74
2023/12/23 06:42:16;;;;;;;44.35;41.17;;;;;;;;;;5061629;28;20515;-73
2023/12/23 06:44:46;;;;;;;42.88;40.33;;;;;;;;;;5061509;28;20063;-72
2023/12/23 06:47:17;;;;;;;43.80;41.28;;;;;;;;;;5061550;28;20870;-74
2023/12/23 06:49:49;;;;;;;39.65;37.42;;;;;;;;;;5061256;28;20052;-74
2023/12/23 06:52:20;;;;;;;43.17;40.70;;;;;;;;;;5061942;28;20499;-74
2023/12/23 06:54:51;;;;;;;42.55;40.05;;;;;;;;;;5061671;28;20503;-74
2023/12/23 06:57:20;;;;;;;41.30;38.90;;;;;;;;;;5061493;28;20048;-73
2023/12/23 06:59:52;;;;;;;41.72;39.30;;;;;;;;;;5061233;28;20051;-72
2023/12/23 07:02:23;;;;;;;38.00;35.70;;;;;;;;;;5061274;28;20060;-73
2023/12/23 07:04:54;;;;;;;36.38;34.38;;;;;;;;;;5061136;28;20045;-74
2023/12/23 07:07:24;;;;;;;38.85;36.38;;;;;;;;;;5061156;28;20041;-73
2023/12/23 07:09:54;;;;;;;39.03;36.65;;;;;;;;;;5060745;28;20051;-73
2023/12/23 07:12:35;;;;;;;36.95;34.85;;;;;;;;;;5061364;28;20059;-74
2023/12/23 07:15:06;;;;;;;38.42;35.88;;;;;;;;;;5063528;28;20518;-74
2023/12/23 07:17:37;;;;;;;35.53;33.45;;;;;;;;;;5064967;28;20060;-74
2023/12/23 07:20:11;;;;;;;35.25;33.17;;;;;;;;;;5064889;28;20063;-73
2023/12/23 07:22:42;;;;;;;35.53;33.53;;;;;;;;;;5064996;28;20052;-74
2023/12/23 07:25:12;;;;;;;36.28;34.17;;;;;;;;;;5065144;28;20041;-73
2023/12/23 07:27:42;;;;;;;39.05;36.70;;;;;;;;;;5065514;28;20745;-74
2023/12/23 07:30:16;;;;;;;36.17;34.10;;;;;;;;;;5064644;28;20041;-73
2023/12/23 07:32:47;;;;;;;36.55;34.25;;;;;;;;;;5063788;28;20045;-76
2023/12/23 07:35:19;;;;;;;36.88;34.58;;;;;;;;;;5064643;28;20114;-74
2023/12/23 07:37:50;;;;;;;49.22;45.92;;;;;;;;;;5064784;28;20052;-74
2023/12/23 07:40:21;;;;;;;34.63;32.80;;;;;;;;;;5064661;28;20055;-73
2023/12/23 07:42:55;;;;;;;38.65;36.17;;;;;;;;;;5064430;28;20048;-73
2023/12/23 07:45:26;;;;;;;33.78;31.52;;;;;;;;;;5063945;28;20044;-73
2023/12/23 07:47:56;;;;;;;30.25;28.52;;;;;;;;;;5063925;28;20419;-73
2023/12/23 07:50:27;;;;;;;31.00;29.17;;;;;;;;;;5064936;28;20048;-74
2023/12/23 07:52:59;;;;;;;27.52;25.98;;;;;;;;;;5064607;28;20052;-74
2023/12/23 07:55:30;;;;;;;30.10;28.55;;;;;;;;;;5064392;28;20503;-74
2023/12/23 07:58:01;;;;;;;30.92;28.98;;;;;;;;;;5063967;28;20044;-74
2023/12/23 08:00:32;;;;;;;42.33;39.75;;;;;;;;;;5064385;28;20040;-72
2023/12/23 08:03:03;;;;;;;53.33;49.92;;;;;;;;;;5064455;28;20049;-72
2023/12/23 08:05:35;;;;;;;47.42;44.28;;;;;;;;;;5064113;28;20415;-72
2023/12/23 08:08:07;;;;;;;49.17;45.45;;;;;;;;;;5064196;28;20044;-73
2023/12/23 08:10:38;;;;;;;47.45;44.40;;;;;;;;;;5063788;28;20052;-73
2023/12/23 08:13:10;;;;;;;43.88;41.08;;;;;;;;;;5065298;28;20052;-73
2023/12/23 08:15:41;;;;;;;49.83;46.92;;;;;;;;;;5064452;28;20048;-73
2023/12/23 08:18:12;;;;;;;51.17;47.95;;;;;;;;;;5064539;28;20411;-74
2023/12/23 08:20:42;;;;;;;44.95;42.10;;;;;;;;;;5063893;28;20071;-74
2023/12/23 08:23:13;;;;;;;39.15;36.78;;;;;;;;;;5064274;28;20048;-74
2023/12/23 08:25:44;;;;;;;50.47;47.25;;;;;;;;;;5063434;28;20051;-72
2023/12/23 08:28:15;;;;;;;45.80;42.92;;;;;;;;;;5064689;28;20044;-74
2023/12/23 08:30:44;;;;;;;43.97;41.15;;;;;;;;;;5063673;28;20044;-74
2023/12/23 08:33:16;;;;;;;42.78;39.90;;;;;;;;;;5063671;28;20056;-73
2023/12/23 08:35:46;;;;;;;38.58;36.28;;;;;;;;;;5064292;28;20706;-74
2023/12/23 08:38:16;;;;;;;40.58;37.92;;;;;;;;;;5064292;28;20071;-74
2023/12/23 08:40:46;;;;;;;41.65;38.90;;;;;;;;;;5063738;28;20048;-74
2023/12/23 08:43:16;;;;;;;42.38;39.58;;;;;;;;;;5063461;28;20059;-74
2023/12/23 08:45:47;;;;;;;42.65;39.85;;;;;;;;;;5062209;28;20052;-74
2023/12/23 08:48:18;;;;;;;40.22;37.88;;;;;;;;;;5063018;28;20411;-74
2023/12/23 08:50:49;;;;;;;43.50;40.72;;;;;;;;;;5063486;28;20041;-74
2023/12/23 08:53:21;;;;;;;43.83;40.83;;;;;;;;;;5063725;28;20051;-73
2023/12/23 08:55:55;;;;;;;40.97;38.13;;;;;;;;;;5063279;28;20676;-74
2023/12/23 08:58:26;;;;;;;44.00;41.30;;;;;;;;;;5063584;28;20503;-74
2023/12/23 09:00:56;;;;;;;39.13;36.65;;;;;;;;;;5063027;28;20048;-74
2023/12/23 09:03:27;;;;;;;39.50;36.97;;;;;;;;;;5062867;28;20529;-73
2023/12/23 09:05:59;;;;;;;42.13;39.83;;;;;;;;;;5063022;28;20056;-74
2023/12/23 09:08:30;;;;;;;42.70;40.25;;;;;;;;;;5062971;28;20052;-74
2023/12/23 09:11:03;;;;;;;40.17;38.03;;;;;;;;;;5062607;28;20044;-74
2023/12/23 09:13:34;;;;;;;37.72;35.60;;;;;;;;;;5063520;28;20408;-73
2023/12/23 09:16:05;;;;;;;40.05;37.60;;;;;;;;;;5062840;28;20052;-72
2023/12/23 09:18:35;;;;;;;36.08;34.13;;;;;;;;;;5063015;28;20047;-74
2023/12/23 09:21:06;;;;;;;33.15;31.30;;;;;;;;;;5063477;28;20482;-74
2023/12/23 09:23:37;;;;;;;32.85;30.65;;;;;;;;;;5063444;28;20545;-74
2023/12/23 09:26:08;;;;;;;32.03;30.33;;;;;;;;;;5062661;28;20311;-74
2023/12/23 09:28:38;;;;;;;34.47;32.55;;;;;;;;;;5062063;28;20051;-74
2023/12/23 09:31:08;;;;;;;32.13;30.42;;;;;;;;;;5062387;28;20051;-78
2023/12/23 09:33:40;;;;;;;32.97;31.08;;;;;;;;;;5062017;28;20055;-74
2023/12/23 09:36:12;;;;;;;35.05;33.13;;;;;;;;;;5062315;28;20055;-74
2023/12/23 09:38:42;;;;;;;33.70;31.73;;;;;;;;;;5062297;28;20501;-74
2023/12/23 09:41:14;;;;;;;30.58;28.88;;;;;;;;;;5062080;28;20048;-80
2023/12/23 09:43:45;;;;;;;34.03;31.95;;;;;;;;;;5061936;28;20051;-74
2023/12/23 09:46:17;;;;;;;33.08;31.15;;;;;;;;;;5061704;28;20044;-73
2023/12/23 09:48:48;;;;;;;31.27;29.50;;;;;;;;;;5062533;28;20411;-75
2023/12/23 09:51:25;;;;;;;36.92;34.63;;;;;;;;;;5062663;28;20048;-73
2023/12/23 09:54:00;;;;;;;33.35;31.42;;;;;;;;;;5062193;28;20045;-73
2023/12/23 09:56:32;;;;;;;35.08;32.88;;;;;;;;;;5060828;28;20052;-74
2023/12/23 09:59:04;;;;;;;38.35;35.95;;;;;;;;;;5062456;28;20051;-74
2023/12/23 10:01:34;;;;;;;33.33;31.45;;;;;;;;;;5061717;28;20052;-75
2023/12/23 10:04:05;;;;;;;35.00;32.95;;;;;;;;;;5061884;28;20048;-75
2023/12/23 10:06:36;;;;;;;32.40;30.50;;;;;;;;;;5060447;28;20064;-80
2023/12/23 10:09:11;;;;;;;33.55;31.35;;;;;;;;;;5061853;28;20928;-74
2023/12/23 10:11:41;;;;;;;35.55;33.38;;;;;;;;;;5062042;28;20052;-73
2023/12/23 10:14:12;;;;;;;33.15;31.23;;;;;;;;;;5061419;28;20392;-74
2023/12/23 10:16:45;;;;;;;32.33;30.40;;;;;;;;;;5061986;28;20044;-75
2023/12/23 10:19:16;;;;;;;30.52;28.92;;;;;;;;;;5062223;28;20048;-74
2023/12/23 10:21:48;;;;;;;32.30;30.60;;;;;;;;;;5061427;28;20525;-74
2023/12/23 10:24:19;;;;;;;30.80;28.88;;;;;;;;;;5061910;28;20044;-75
2023/12/23 10:26:50;;;;;;;34.53;32.25;;;;;;;;;;5061571;28;20067;-75
2023/12/23 10:29:25;;;;;;;34.58;31.77;;;;;;;;;;5061580;28;20051;-74
2023/12/23 10:31:58;;;;;;;31.75;29.77;;;;;;;;;;5061955;28;20036;-74
2023/12/23 10:34:39;;;;;;;34.28;32.10;;;;;;;;;;5062625;28;20048;-75
2023/12/23 10:37:12;;;;;;;28.73;26.88;;;;;;;;;;5062137;28;20040;-75
2023/12/23 10:39:58;;;;;;;27.08;25.45;;;;;;;;;;5061911;28;20055;-74
2023/12/23 10:42:30;;;;;;;33.40;31.30;;;;;;;;;;5061726;28;20044;-74
2023/12/23 10:45:02;;;;;;;24.45;22.92;;;;;;;;;;5062065;28;20068;-74
2023/12/23 10:47:33;;;;;;;33.22;30.92;;;;;;;;;;5062107;28;20044;-74
2023/12/23 10:50:08;;;;;;;30.40;28.60;;;;;;;;;;5060826;28;20511;-75
2023/12/23 10:52:38;;;;;;;32.42;30.20;;;;;;;;;;5061545;28;20063;-76
2023/12/23 10:55:12;;;;;;;28.60;26.88;;;;;;;;;;5060114;28;20450;-75
2023/12/23 10:57:45;;;;;;;31.15;29.45;;;;;;;;;;5062072;28;20048;-74
2023/12/23 11:00:17;;;;;;;28.17;26.35;;;;;;;;;;5061721;28;20052;-74
2023/12/23 11:02:51;;;;;;;23.85;22.15;;;;;;;;;;5060820;28;20515;-74
2023/12/23 11:05:23;;;;;;;33.22;31.20;;;;;;;;;;5061692;28;20419;-74
2023/12/23 11:07:55;;;;;;;32.05;29.90;;;;;;;;;;5061523;28;20044;-73
2023/12/23 11:10:41;;;;;;;20.92;19.77;;;;;;;;;;5062081;28;20594;-75
2023/12/23 11:13:13;;;;;;;27.33;25.40;;;;;;;;;;5061804;28;20067;-74
2023/12/23 11:15:43;;;;;;;24.50;22.95;;;;;;;;;;5061386;28;20508;-75
2023/12/23 11:18:16;;;;;;;21.33;19.98;;;;;;;;;;5061226;28;20520;-75
2023/12/23 11:20:49;;;;;;;28.20;26.08;;;;;;;;;;5061212;28;20088;-74
2023/12/23 11:23:32;;;;;;;27.30;25.50;;;;;;;;;;5060703;28;20056;-74
2023/12/23 11:26:03;;;;;;;23.00;21.45;;;;;;;;;;5061107;28;20056;-77
2023/12/23 11:28:36;;;;;;;21.48;19.95;;;;;;;;;;5061045;28;20056;-75
2023/12/23 11:31:09;;;;;;;19.67;18.30;;;;;;;;;;5061302;28;20048;-75
2023/12/23 11:33:39;;;;;;;36.88;34.63;;;;;;;;;;5060944;28;20055;-75
2023/12/23 11:36:12;;;;;;;16.33;15.25;;;;;;;;;;5060927;28;20059;-75
2023/12/23 11:38:50;;;;;;;24.23;22.63;;;;;;;;;;5060755;28;20053;-81
2023/12/23 11:41:22;;;;;;;20.60;19.20;;;;;;;;;;5061052;28;20048;-73
2023/12/23 11:43:54;;;;;;;27.40;25.73;;;;;;;;;;5060776;28;20049;-80
2023/12/23 11:46:25;;;;;;;22.85;20.98;;;;;;;;;;5061381;28;20041;-75
2023/12/23 11:49:02;;;;;;;22.88;21.45;;;;;;;;;;5060849;28;20616;-79
2023/12/23 11:51:34;;;;;;;21.80;20.20;;;;;;;;;;5061092;28;20586;-75
2023/12/23 11:54:06;;;;;;;19.42;18.00;;;;;;;;;;5061112;28;20051;-77
2023/12/23 11:56:36;;;;;;;17.42;16.30;;;;;;;;;;5059449;28;20052;-82
2023/12/23 11:59:08;;;;;;;19.77;18.38;;;;;;;;;;5059855;28;20056;-73
2023/12/23 12:01:39;;;;;;;19.40;17.98;;;;;;;;;;5060835;28;20822;-75
2023/12/23 12:04:09;;;;;;;18.50;17.17;;;;;;;;;;5063609;28;20415;-75
2023/12/23 12:06:40;;;;;;;19.13;17.75;;;;;;;;;;5064088;28;20044;-74
2023/12/23 12:09:10;;;;;;;15.07;13.82;;;;;;;;;;5063969;28;20056;-76
2023/12/23 12:11:42;;;;;;;15.82;14.27;;;;;;;;;;5063855;28;20503;-74
2023/12/23 12:14:13;;;;;;;15.15;14.05;;;;;;;;;;5064715;28;20061;-80
2023/12/23 12:16:43;;;;;;;16.95;15.73;;;;;;;;;;5065393;28;20052;-75
2023/12/23 12:19:15;;;;;;;20.00;18.58;;;;;;;;;;5064573;28;20060;-74
2023/12/23 12:21:46;;;;;;;17.65;16.55;;;;;;;;;;5063252;28;20060;-75
2023/12/23 12:24:17;;;;;;;17.17;16.10;;;;;;;;;;5062211;28;20388;-75
2023/12/23 12:26:52;;;;;;;21.65;20.38;;;;;;;;;;5063801;28;20047;-75
2023/12/23 12:29:24;;;;;;;13.50;12.52;;;;;;;;;;5063854;28;20679;-77
2023/12/23 12:31:59;;;;;;;17.73;16.42;;;;;;;;;;5063618;28;20522;-76
2023/12/23 12:34:29;;;;;;;14.73;13.88;;;;;;;;;;5062091;28;20060;-75
2023/12/23 12:37:02;;;;;;;19.80;18.40;;;;;;;;;;5062857;28;20048;-78
2023/12/23 12:39:35;;;;;;;25.20;23.73;;;;;;;;;;5063997;28;20049;-76
2023/12/23 12:42:07;;;;;;;20.38;18.83;;;;;;;;;;5064026;28;20045;-74
2023/12/23 12:44:36;;;;;;;22.85;21.13;;;;;;;;;;5064299;28;20055;-74
2023/12/23 12:47:08;;;;;;;20.25;18.40;;;;;;;;;;5063686;28;20055;-76
2023/12/23 12:49:47;;;;;;;20.10;18.75;;;;;;;;;;5063569;28;20047;-75
2023/12/23 12:52:36;;;;;;;35.85;33.50;;;;;;;;;;5063427;28;20048;-75
2023/12/23 12:55:06;;;;;;;21.75;20.48;;;;;;;;;;5063575;28;20044;-75
2023/12/23 12:57:37;;;;;;;26.95;24.88;;;;;;;;;;5063448;28;20410;-76
2023/12/23 13:00:09;;;;;;;23.02;21.50;;;;;;;;;;5062694;28;20061;-84
2023/12/23 13:02:42;;;;;;;37.67;34.78;;;;;;;;;;5063259;28;20059;-74
2023/12/23 13:05:12;;;;;;;21.80;20.55;;;;;;;;;;5063608;28;20059;-77
2023/12/23 13:07:42;;;;;;;15.13;14.07;;;;;;;;;;5063068;28;20067;-78
2023/12/23 13:10:14;;;;;;;43.28;40.28;;;;;;;;;;5061401;28;20059;-75
2023/12/23 13:12:45;;;;;;;14.98;13.95;;;;;;;;;;5063461;28;20056;-75
2023/12/23 13:15:16;;;;;;;15.85;14.70;;;;;;;;;;5063846;28;20055;-76
2023/12/23 13:17:47;;;;;;;23.67;22.17;;;;;;;;;;5064185;28;20102;-77
2023/12/23 13:20:17;;;;;;;12.52;11.73;;;;;;;;;;5062907;28;20044;-74
2023/12/23 13:22:48;;;;;;;17.30;16.23;;;;;;;;;;5062960;28;20066;-75
2023/12/23 13:25:20;;;;;;;18.33;16.52;;;;;;;;;;5062830;28;20048;-74
2023/12/23 13:27:51;;;;;;;19.38;18.13;;;;;;;;;;5063296;28;20051;-76
2023/12/23 13:30:22;;;;;;;18.88;17.77;;;;;;;;;;5062929;28;20045;-80
2023/12/23 13:32:53;;;;;;;17.15;16.05;;;;;;;;;;5062832;28;20624;-77
2023/12/23 13:35:25;;;;;;;21.05;19.52;;;;;;;;;;5061763;28;20063;-74
2023/12/23 13:37:55;;;;;;;19.15;18.00;;;;;;;;;;5062803;28;20067;-77
2023/12/23 13:40:25;;;;;;;26.45;24.88;;;;;;;;;;5059682;28;20040;-83
2023/12/23 13:42:56;;;;;;;23.98;22.48;;;;;;;;;;5042120;28;20045;-80
2023/12/23 13:45:28;;;;;;;21.60;19.98;;;;;;;;;;5041718;28;20049;-78
2023/12/23 13:47:58;;;;;;;50.75;47.33;;;;;;;;;;5042164;28;20061;-80
2023/12/23 13:50:28;;;;;;;26.25;24.45;;;;;;;;;;5042371;28;20072;-75
2023/12/23 13:52:59;;;;;;;21.98;20.48;;;;;;;;;;5042114;28;20056;-77
2023/12/23 13:55:32;;;;;;;29.83;27.92;;;;;;;;;;5042423;28;20083;-75
2023/12/23 13:58:09;;;;;;;20.75;19.40;;;;;;;;;;5042657;28;20048;-75
2023/12/23 14:00:40;;;;;;;22.58;21.00;;;;;;;;;;5042414;28;20056;-75
2023/12/23 14:03:10;;;;;;;12.63;11.73;;;;;;;;;;5042133;28;20725;-75
2023/12/23 14:05:44;;;;;;;15.40;14.43;;;;;;;;;;5041364;28;20508;-80
2023/12/23 14:08:15;;;;;;;17.85;16.73;;;;;;;;;;5042885;28;20045;-75
2023/12/23 14:10:45;;;;;;;18.75;17.52;;;;;;;;;;5042606;28;20060;-75
2023/12/23 14:13:18;;;;;;;13.82;12.77;;;;;;;;;;5042076;28;20049;-75
2023/12/23 14:15:48;;;;;;;18.20;17.13;;;;;;;;;;5041872;28;20049;-76
2023/12/23 14:18:20;;;;;;;17.70;16.70;;;;;;;;;;5040769;28;20053;-75
2023/12/23 14:20:50;;;;;;;13.82;12.88;;;;;;;;;;5041787;28;20056;-74
2023/12/23 14:23:21;;;;;;;14.23;13.40;;;;;;;;;;5051512;28;20048;-74
2023/12/23 14:25:53;;;;;;;15.40;14.10;;;;;;;;;;5042033;28;20041;-78
2023/12/23 14:28:23;;;;;;;15.30;14.40;;;;;;;;;;5040066;28;20059;-75
2023/12/23 14:30:53;;;;;;;13.57;12.68;;;;;;;;;;5041684;28;20048;-75
2023/12/23 14:33:24;;;;;;;17.20;15.77;;;;;;;;;;5042230;28;20049;-76
2023/12/23 14:35:55;;;;;;;39.92;36.85;;;;;;;;;;5041151;28;20052;-76
2023/12/23 14:38:28;;;;;;;15.82;14.75;;;;;;;;;;5041089;28;20056;-75
2023/12/23 14:40:58;;;;;;;15.90;14.88;;;;;;;;;;5041041;28;20053;-75